Time;durP1;ratioP1;P1;durP2;ratioP2;P2;SDS_P1;SDS_P2;PMS_P1;PMS_P2;Temp;Humidity;BMP_temperature;BMP_pressure;BME280_temperature;BME280_humidity;BME280_pressure;Samples;Min_cycle;Max_cycle;Signal;HPM_P1;HPM_P2
2023/10/02 00:05:06;;;;;;;5.68;3.63;;;15.40;99.90;;;;;;5031672;28;20116;-52
2023/10/02 00:07:36;;;;;;;5.97;3.10;;;15.40;99.90;;;;;;5034139;28;20527;-53
2023/10/02 00:10:04;;;;;;;5.10;3.45;;;15.40;99.90;;;;;;5030738;28;20543;-55
2023/10/02 00:12:32;;;;;;;6.10;3.63;;;15.40;99.90;;;;;;5024362;28;20041;-54
2023/10/02 00:14:58;;;;;;;6.35;3.70;;;15.40;99.90;;;;;;5032857;28;20119;-54
2023/10/02 00:17:24;;;;;;;6.82;4.05;;;15.40;99.90;;;;;;5030020;28;20029;-51
2023/10/02 00:19:57;;;;;;;7.85;4.07;;;15.40;99.90;;;;;;5025510;28;20909;-53
2023/10/02 00:22:37;;;;;;;5.32;3.63;;;15.40;99.90;;;;;;5029268;28;20020;-53
2023/10/02 00:25:27;;;;;;;7.40;4.63;;;15.40;99.90;;;;;;5033459;28;20565;-53
2023/10/02 00:27:54;;;;;;;6.40;3.47;;;15.40;99.90;;;;;;5012039;28;20090;-53
2023/10/02 00:30:36;;;;;;;7.40;3.55;;;15.40;99.90;;;;;;5036046;28;20488;-52
2023/10/02 00:33:02;;;;;;;9.10;4.60;;;15.40;99.90;;;;;;5029337;28;20396;-53
2023/10/02 00:35:30;;;;;;;4.90;3.33;;;15.40;99.90;;;;;;5031965;28;20087;-53
2023/10/02 00:37:57;;;;;;;7.78;3.65;;;15.40;99.90;;;;;;5012691;28;20057;-52
2023/10/02 00:40:28;;;;;;;5.80;3.17;;;15.40;99.90;;;;;;5034099;28;20035;-53
2023/10/02 00:42:55;;;;;;;7.80;3.17;;;15.40;99.90;;;;;;5031496;28;20055;-51
2023/10/02 00:45:24;;;;;;;4.93;3.20;;;15.40;99.90;;;;;;5018195;28;20025;-49
2023/10/02 00:47:52;;;;;;;4.95;3.00;;;15.40;99.90;;;;;;5015306;28;20570;-51
2023/10/02 00:50:24;;;;;;;6.07;3.08;;;15.40;99.90;;;;;;5024775;28;20022;-52
2023/10/02 00:52:55;;;;;;;6.40;3.30;;;15.40;99.90;;;;;;5031185;28;20032;-51
2023/10/02 00:55:23;;;;;;;5.15;3.05;;;15.40;99.90;;;;;;5035830;28;20049;-50
2023/10/02 00:57:52;;;;;;;5.97;3.45;;;15.40;99.90;;;;;;5029958;28;20032;-49
2023/10/02 01:00:30;;;;;;;5.22;3.08;;;15.40;99.90;;;;;;5031432;28;20550;-52
2023/10/02 01:02:58;;;;;;;5.38;3.15;;;15.40;99.90;;;;;;5027611;28;20032;-52
2023/10/02 01:05:59;;;;;;;4.35;2.80;;;15.40;99.90;;;;;;5032404;28;20388;-51
2023/10/02 01:08:24;;;;;;;3.42;2.45;;;15.40;99.90;;;;;;5023847;28;20044;-52
2023/10/02 01:10:59;;;;;;;6.00;3.20;;;15.40;99.90;;;;;;5025041;28;20505;-50
2023/10/02 01:13:27;;;;;;;6.13;3.58;;;15.40;99.90;;;;;;5022422;28;20028;-51
2023/10/02 01:15:54;;;;;;;3.35;2.30;;;15.40;99.90;;;;;;5026725;28;20026;-51
2023/10/02 01:18:23;;;;;;;6.05;3.13;;;15.40;99.90;;;;;;5025187;28;20056;-53
2023/10/02 01:20:53;;;;;;;5.53;3.03;;;15.40;99.90;;;;;;5023281;28;20484;-52
2023/10/02 01:23:23;;;;;;;7.82;3.63;;;15.40;99.90;;;;;;5026367;28;20234;-54
2023/10/02 01:25:49;;;;;;;6.68;4.05;;;15.40;99.90;;;;;;5027413;28;20033;-53
2023/10/02 01:28:15;;;;;;;6.20;3.50;;;15.40;99.90;;;;;;5030132;28;20108;-51
2023/10/02 01:30:44;;;;;;;6.03;3.40;;;15.40;99.90;;;;;;5026514;28;20049;-52
2023/10/02 01:33:26;;;;;;;4.82;3.20;;;15.50;99.90;;;;;;5028997;28;20018;-50
2023/10/02 01:35:54;;;;;;;4.63;2.83;;;15.50;99.90;;;;;;5034025;28;20339;-54
2023/10/02 01:38:31;;;;;;;5.72;3.03;;;15.50;99.90;;;;;;5033567;28;20025;-53
2023/10/02 01:41:03;;;;;;;5.68;3.00;;;15.50;99.90;;;;;;5032610;28;20117;-52
2023/10/02 01:43:33;;;;;;;4.72;2.70;;;15.50;99.90;;;;;;5028693;28;20036;-51
2023/10/02 01:46:03;;;;;;;5.85;3.03;;;15.50;99.90;;;;;;5029043;28;20167;-53
2023/10/02 01:48:40;;;;;;;4.38;2.70;;;15.40;99.90;;;;;;5022629;28;20018;-51
2023/10/02 01:51:20;;;;;;;4.43;2.85;;;15.50;99.90;;;;;;5035771;28;20025;-53
2023/10/02 01:54:01;;;;;;;5.28;3.03;;;15.40;99.90;;;;;;5016247;28;20040;-55
2023/10/02 01:56:29;;;;;;;6.72;2.90;;;15.40;99.90;;;;;;5032138;28;20029;-52
2023/10/02 01:59:08;;;;;;;5.20;3.55;;;15.40;99.90;;;;;;5031412;28;20025;-52
2023/10/02 02:01:46;;;;;;;5.70;2.70;;;15.50;99.90;;;;;;5037037;28;20215;-52
2023/10/02 02:04:15;;;;;;;6.47;3.90;;;15.50;99.90;;;;;;5030833;28;20517;-53
2023/10/02 02:06:54;;;;;;;5.43;3.42;;;15.50;99.90;;;;;;5027290;28;20025;-54
2023/10/02 02:16:07;;;;;;;4.72;3.00;;;15.40;99.90;;;;;;5026823;28;20080;-49
2023/10/02 02:18:33;;;;;;;6.05;3.38;;;15.40;99.90;;;;;;5034388;28;20021;-49
2023/10/02 02:20:58;;;;;;;4.97;2.85;;;15.40;99.90;;;;;;5033475;28;20103;-53
2023/10/02 02:23:27;;;;;;;4.72;2.90;;;15.40;99.90;;;;;;5028846;28;20036;-49
2023/10/02 02:25:53;;;;;;;4.95;3.05;;;15.40;99.90;;;;;;5024798;28;20067;-52
2023/10/02 02:28:19;;;;;;;4.90;3.00;;;15.40;99.90;;;;;;5026870;28;20026;-53
2023/10/02 02:30:47;;;;;;;4.40;3.13;;;15.40;99.90;;;;;;5025765;28;20559;-51
2023/10/02 02:33:13;;;;;;;4.85;2.83;;;15.40;99.90;;;;;;5025361;28;20276;-51
2023/10/02 02:35:44;;;;;;;5.25;3.38;;;15.40;99.90;;;;;;5028805;28;20025;-53
2023/10/02 02:38:15;;;;;;;4.95;3.33;;;15.40;99.90;;;;;;5026838;28;20249;-49
2023/10/02 02:40:41;;;;;;;5.63;3.50;;;15.40;99.90;;;;;;5030253;28;20029;-51
2023/10/02 02:43:19;;;;;;;5.00;3.20;;;15.40;99.90;;;;;;5026504;28;20095;-53
2023/10/02 02:45:47;;;;;;;5.25;3.05;;;15.40;99.90;;;;;;5031952;28;20255;-54
2023/10/02 02:48:16;;;;;;;4.78;3.00;;;15.30;99.90;;;;;;5025833;28;20374;-54
2023/10/02 02:50:42;;;;;;;7.85;3.88;;;15.30;99.90;;;;;;5036076;28;20202;-51
2023/10/02 02:53:22;;;;;;;6.00;3.20;;;15.30;99.90;;;;;;5030672;28;20056;-52
2023/10/02 02:56:22;;;;;;;6.18;3.50;;;15.30;99.90;;;;;;5032693;28;20101;-49
2023/10/02 02:58:49;;;;;;;5.22;3.42;;;15.30;99.90;;;;;;5036330;28;20040;-48
2023/10/02 03:01:22;;;;;;;7.07;3.83;;;15.30;99.90;;;;;;5033898;28;20032;-52
2023/10/02 03:03:50;;;;;;;7.20;3.65;;;15.30;99.90;;;;;;5027611;28;20033;-53
2023/10/02 03:06:21;;;;;;;4.50;3.00;;;15.30;99.90;;;;;;5026086;28;20049;-53
2023/10/02 03:08:57;;;;;;;6.05;3.22;;;15.30;99.90;;;;;;5027751;28;20037;-53
2023/10/02 03:11:28;;;;;;;;;;;15.30;99.90;;;;;;5027054;28;20017;-53
2023/10/02 03:14:12;;;;;;;5.70;3.20;;;15.40;99.90;;;;;;5024996;28;20272;-52
2023/10/02 03:16:38;;;;;;;5.57;3.47;;;15.30;99.90;;;;;;5026909;28;20557;-50
2023/10/02 03:19:07;;;;;;;4.07;2.75;;;15.30;99.90;;;;;;5021073;28;20029;-51
2023/10/02 03:21:37;;;;;;;5.18;3.47;;;15.30;99.90;;;;;;5027418;28;20064;-52
2023/10/02 03:24:04;;;;;;;5.82;3.60;;;15.30;99.90;;;;;;5026644;28;20021;-64
2023/10/02 03:29:01;;;;;;;7.95;3.47;;;15.30;99.90;;;;;;5027750;28;20057;-58
2023/10/02 03:31:51;;;;;;;4.07;2.95;;;15.30;99.90;;;;;;5025827;28;20017;-59
2023/10/02 03:34:34;;;;;;;5.63;3.20;;;15.20;99.90;;;;;;5025723;28;20032;-58
2023/10/02 03:37:14;;;;;;;4.35;3.03;;;15.10;99.90;;;;;;5027892;28;20654;-59
2023/10/02 03:39:59;;;;;;;5.28;3.38;;;15.10;99.90;;;;;;5022546;28;20447;-58
2023/10/02 03:42:26;;;;;;;6.15;3.33;;;15.00;99.90;;;;;;5022329;28;20032;-58
2023/10/02 03:44:58;;;;;;;6.93;3.95;;;15.00;99.90;;;;;;5026371;28;20448;-59
2023/10/02 03:47:25;;;;;;;6.38;3.38;;;14.80;99.90;;;;;;5028450;28;20024;-58
2023/10/02 03:49:52;;;;;;;4.70;3.35;;;14.70;99.90;;;;;;5029746;28;20035;-58
2023/10/02 03:52:17;;;;;;;5.50;3.38;;;14.70;99.90;;;;;;5026483;28;20094;-59
2023/10/02 03:54:44;;;;;;;5.82;3.40;;;14.50;99.90;;;;;;5029553;28;20116;-58
2023/10/02 03:57:37;;;;;;;6.35;3.50;;;14.50;99.90;;;;;;5029612;28;20944;-59
2023/10/02 03:59:57;;;;;;;4.88;3.42;;;14.30;99.90;;;;;;5027761;28;20068;-59
2023/10/02 04:02:25;;;;;;;4.82;3.53;;;14.20;99.90;;;;;;5034420;28;20099;-59
2023/10/02 04:04:51;;;;;;;4.80;3.25;;;14.10;99.90;;;;;;5031156;28;20036;-59
2023/10/02 04:07:20;;;;;;;5.65;3.13;;;14.00;99.90;;;;;;5033263;28;20428;-59
2023/10/02 04:09:50;;;;;;;6.15;3.28;;;14.00;99.90;;;;;;5032665;28;20025;-58
2023/10/02 04:12:19;;;;;;;6.40;3.25;;;13.90;99.90;;;;;;5032368;28;20956;-58
2023/10/02 04:14:46;;;;;;;7.72;3.40;;;13.80;99.90;;;;;;5030439;28;20217;-58
2023/10/02 04:19:49;;;;;;;6.35;3.55;;;13.60;99.90;;;;;;5027453;28;20546;-59
2023/10/02 04:22:27;;;;;;;6.57;3.65;;;13.60;99.90;;;;;;5025567;28;20380;-58
2023/10/02 04:24:58;;;;;;;8.13;3.40;;;13.50;99.90;;;;;;5023081;28;20056;-59
2023/10/02 04:32:49;;;;;;;7.35;3.95;;;13.30;99.90;;;;;;5032905;28;20032;-59
2023/10/02 04:38:07;;;;;;;6.55;3.80;;;13.10;99.90;;;;;;5020454;28;20528;-60
2023/10/02 04:40:51;;;;;;;6.28;3.60;;;13.10;99.90;;;;;;5019641;28;20736;-59
2023/10/02 04:43:25;;;;;;;6.13;3.53;;;13.00;99.90;;;;;;5029919;28;20041;-58
2023/10/02 04:46:01;;;;;;;8.38;3.78;;;12.90;99.90;;;;;;5029697;28;20040;-58
2023/10/02 04:48:38;;;;;;;9.15;4.13;;;12.90;99.90;;;;;;5021280;28;20405;-58
2023/10/02 04:51:12;;;;;;;5.57;3.60;;;12.90;99.90;;;;;;5024349;28;20021;-58
2023/10/02 04:53:42;;;;;;;8.00;4.53;;;12.80;99.90;;;;;;5019737;28;20029;-57
2023/10/02 04:56:21;;;;;;;8.35;4.10;;;12.80;99.90;;;;;;5025500;28;20364;-59
2023/10/02 04:58:49;;;;;;;4.75;3.00;;;12.80;99.90;;;;;;5031590;28;20052;-59
2023/10/02 05:01:28;;;;;;;6.97;4.03;;;12.80;99.90;;;;;;5033028;28;20051;-59
2023/10/02 05:03:55;;;;;;;7.45;4.40;;;12.80;99.90;;;;;;5016997;28;20524;-59
2023/10/02 05:11:50;;;;;;;7.05;4.25;;;12.70;99.90;;;;;;5027197;28;20032;-58
2023/10/02 05:14:25;;;;;;;6.38;4.45;;;12.70;99.90;;;;;;5033635;28;20061;-59
2023/10/02 05:17:16;;;;;;;6.35;3.80;;;12.60;99.90;;;;;;5027612;28;20503;-59
2023/10/02 05:19:57;;;;;;;5.53;3.15;;;12.60;99.90;;;;;;5022551;28;20036;-58
2023/10/02 05:22:27;;;;;;;6.45;3.92;;;12.60;99.90;;;;;;5030184;28;20396;-59
2023/10/02 05:24:59;;;;;;;7.55;4.18;;;12.60;99.90;;;;;;5027641;28;20120;-59
2023/10/02 05:27:33;;;;;;;10.85;4.68;;;12.50;99.90;;;;;;5029487;28;20112;-59
2023/10/02 05:30:00;;;;;;;6.32;4.30;;;12.50;99.90;;;;;;5023489;28;20458;-61
2023/10/02 05:32:35;;;;;;;6.90;4.18;;;12.50;99.90;;;;;;5035445;28;20025;-59
2023/10/02 05:37:42;;;;;;;6.43;3.55;;;12.60;99.90;;;;;;5025871;28;20025;-59
2023/10/02 05:45:40;;;;;;;7.55;3.58;;;12.70;99.90;;;;;;5022458;28;20025;-59
2023/10/02 05:48:07;;;;;;;8.90;4.45;;;12.70;99.90;;;;;;5024342;28;20086;-59
2023/10/02 05:50:34;;;;;;;9.02;4.65;;;12.90;99.90;;;;;;5030222;28;20506;-59
2023/10/02 05:52:59;;;;;;;6.63;4.13;;;12.90;99.90;;;;;;5030237;28;20037;-59
2023/10/02 05:55:25;;;;;;;6.38;3.58;;;13.00;99.90;;;;;;5033551;28;20036;-59
2023/10/02 05:57:54;;;;;;;6.80;4.10;;;13.30;99.90;;;;;;5031072;28;20032;-58
2023/10/02 06:00:20;;;;;;;5.20;3.65;;;13.80;99.90;;;;;;5032914;28;20018;-59
2023/10/02 06:02:58;;;;;;;5.97;4.18;;;14.30;99.90;;;;;;5027208;28;20045;-56
2023/10/02 06:05:23;;;;;;;8.18;4.13;;;14.80;99.90;;;;;;5021651;28;20029;-57
2023/10/02 06:07:51;;;;;;;5.97;3.88;;;15.50;99.90;;;;;;5027021;28;20075;-57
2023/10/02 06:10:26;;;;;;;6.43;3.83;;;16.00;99.90;;;;;;5022100;28;20043;-57
2023/10/02 06:13:05;;;;;;;5.90;3.78;;;16.50;99.90;;;;;;5021038;28;20029;-60
2023/10/02 06:15:48;;;;;;;9.77;4.72;;;17.00;99.90;;;;;;5026699;28;20409;-60
2023/10/02 06:18:29;;;;;;;6.25;4.30;;;17.70;99.90;;;;;;5009609;28;20125;-60
2023/10/02 06:21:03;;;;;;;6.85;3.88;;;18.30;99.90;;;;;;5027286;28;20033;-62
2023/10/02 06:23:38;;;;;;;6.82;4.05;;;18.90;99.90;;;;;;5021124;28;20033;-61
2023/10/02 06:26:10;;;;;;;5.93;3.70;;;19.40;99.90;;;;;;5023423;28;20208;-60
2023/10/02 06:28:36;;;;;;;7.18;3.80;;;19.90;99.90;;;;;;5018914;28;20064;-60
2023/10/02 06:31:06;;;;;;;9.35;4.32;;;20.40;99.90;;;;;;5025846;28;20033;-60
2023/10/02 06:33:36;;;;;;;7.20;4.20;;;20.80;99.50;;;;;;5026864;28;20665;-60
2023/10/02 06:36:07;;;;;;;10.20;4.80;;;21.20;98.10;;;;;;5023203;28;20112;-60
2023/10/02 06:38:33;;;;;;;6.65;4.82;;;21.60;96.10;;;;;;5026159;28;20029;-60
2023/10/02 06:40:59;;;;;;;9.50;5.10;;;21.90;94.70;;;;;;5026573;28;20048;-61
2023/10/02 06:43:32;;;;;;;10.60;5.57;;;22.10;92.40;;;;;;5024261;28;20449;-60
2023/10/02 06:46:19;;;;;;;8.70;5.05;;;22.40;91.00;;;;;;5022664;28;20029;-60
2023/10/02 06:48:46;;;;;;;10.02;5.40;;;22.50;80.80;;;;;;5017576;28;20026;-61
2023/10/02 06:51:16;;;;;;;11.02;5.50;;;22.60;90.10;;;;;;5019700;28;20022;-61
2023/10/02 06:53:42;;;;;;;9.63;5.90;;;22.90;88.90;;;;;;5026976;28;20029;-61
2023/10/02 06:56:12;;;;;;;10.50;5.97;;;23.00;85.80;;;;;;5023769;28;20079;-61
2023/10/02 06:59:12;;;;;;;11.85;5.60;;;23.10;85.30;;;;;;5033209;28;20079;-61
2023/10/02 07:01:30;;;;;;;10.30;5.88;;;23.20;84.30;;;;;;5021276;28;20499;-61
2023/10/02 07:03:56;;;;;;;11.40;6.05;;;23.50;83.20;;;;;;5029164;28;20032;-60
2023/10/02 07:06:24;;;;;;;9.20;5.78;;;23.60;83.50;;;;;;5023850;28;20023;-61
2023/10/02 07:09:10;;;;;;;9.88;5.93;;;23.50;81.50;;;;;;5030723;28;20025;-61
2023/10/02 07:11:36;;;;;;;9.35;5.38;;;23.50;80.30;;;;;;5033371;28;20025;-61
2023/10/02 07:14:03;;;;;;;10.10;5.80;;;23.60;79.20;;;;;;5034782;28;20029;-60
2023/10/02 07:16:30;;;;;;;10.70;6.63;;;23.70;79.50;;;;;;5035034;28;20021;-61
2023/10/02 07:18:58;;;;;;;11.45;6.05;;;24.00;75.60;;;;;;5026638;28;20112;-61
2023/10/02 07:21:25;;;;;;;9.98;5.93;;;24.10;75.70;;;;;;5030098;28;20035;-60
2023/10/02 07:23:50;;;;;;;8.23;5.43;;;24.30;75.00;;;;;;5023105;28;20033;-60
2023/10/02 07:26:45;;;;;;;11.90;6.13;;;24.40;74.00;;;;;;5022419;28;20052;-61
2023/10/02 07:29:06;;;;;;;9.63;5.85;;;24.70;73.70;;;;;;5027113;28;20045;-61
2023/10/02 07:31:32;;;;;;;9.18;6.15;;;24.80;74.10;;;;;;5026003;28;20083;-61
2023/10/02 07:33:57;;;;;;;10.30;6.13;;;24.90;73.10;;;;;;5025680;28;20037;-61
2023/10/02 07:36:24;;;;;;;9.98;5.80;;;25.00;68.30;;;;;;5008572;28;20389;-61
2023/10/02 07:38:49;;;;;;;12.02;5.88;;;25.10;71.70;;;;;;5027813;28;20237;-61
2023/10/02 07:41:25;;;;;;;11.27;6.00;;;25.20;72.40;;;;;;5022961;28;20029;-61
2023/10/02 07:43:55;;;;;;;11.10;6.10;;;25.40;70.60;;;;;;5025977;28;20029;-61
2023/10/02 07:46:21;;;;;;;10.57;5.90;;;25.60;70.10;;;;;;5018600;28;20087;-60
2023/10/02 07:49:00;;;;;;;9.68;6.40;;;25.90;70.00;;;;;;5017838;28;20033;-61
2023/10/02 07:51:37;;;;;;;10.93;6.45;;;26.10;67.90;;;;;;5020298;28;20079;-61
2023/10/02 07:54:04;;;;;;;13.70;5.70;;;26.10;65.60;;;;;;5026792;28;20037;-61
2023/10/02 07:56:29;;;;;;;9.68;6.00;;;26.30;66.30;;;;;;5026583;28;20388;-61
2023/10/02 07:58:55;;;;;;;12.13;6.68;;;26.40;65.80;;;;;;5024351;28;20108;-61
2023/10/02 08:01:23;;;;;;;10.25;6.55;;;26.20;63.30;;;;;;5028335;28;20401;-61
2023/10/02 08:03:49;;;;;;;10.20;6.38;;;26.20;63.00;;;;;;5025902;28;20139;-60
2023/10/02 08:06:22;;;;;;;9.10;5.65;;;26.30;62.90;;;;;;5023288;28;20315;-61
2023/10/02 08:11:39;;;;;;;9.55;5.75;;;26.30;60.70;;;;;;5029339;28;20555;-61
2023/10/02 08:14:05;;;;;;;10.20;6.00;;;26.40;61.80;;;;;;5024011;28;20065;-61
2023/10/02 08:16:34;;;;;;;9.32;5.65;;;26.50;62.30;;;;;;5029100;28;20100;-60
2023/10/02 08:19:10;;;;;;;10.07;5.40;;;26.50;60.70;;;;;;5026314;28;20040;-61
2023/10/02 08:21:36;;;;;;;10.35;6.50;;;26.60;60.80;;;;;;5023630;28;20138;-61
2023/10/02 08:24:05;;;;;;;12.98;6.68;;;26.70;59.10;;;;;;5024756;28;20048;-61
2023/10/02 08:26:43;;;;;;;11.25;6.80;;;26.80;59.30;;;;;;5028347;28;20045;-61
2023/10/02 08:29:10;;;;;;;9.95;6.40;;;26.80;57.90;;;;;;5023675;28;20030;-61
2023/10/02 08:31:42;;;;;;;11.75;6.30;;;26.80;58.00;;;;;;5025362;28;20028;-60
2023/10/02 08:34:09;;;;;;;10.95;6.40;;;26.90;57.30;;;;;;5024728;28;20022;-61
2023/10/02 08:36:37;;;;;;;14.15;6.93;;;26.90;56.90;;;;;;5029451;28;20032;-61
2023/10/02 08:39:03;;;;;;;14.77;8.27;;;26.70;53.70;;;;;;5026359;28;20091;-60
2023/10/02 08:41:28;;;;;;;12.18;7.20;;;26.90;54.20;;;;;;5018035;28;20029;-61
2023/10/02 08:43:54;;;;;;;11.38;7.25;;;26.80;54.20;;;;;;5033319;28;20025;-61
2023/10/02 08:46:23;;;;;;;12.13;6.82;;;26.90;54.00;;;;;;5030755;28;23160;-61
2023/10/02 08:48:55;;;;;;;12.43;6.82;;;27.00;54.00;;;;;;5024306;28;20108;-61
2023/10/02 08:51:29;;;;;;;14.13;6.85;;;26.90;53.60;;;;;;5025759;28;20025;-61
2023/10/02 08:53:58;;;;;;;12.60;6.53;;;27.00;53.40;;;;;;5025720;28;20025;-61
2023/10/02 08:56:29;;;;;;;9.38;6.07;;;27.10;53.30;;;;;;5036205;28;20086;-61
2023/10/02 08:59:26;;;;;;;11.98;6.93;;;27.10;53.50;;;;;;5027024;28;20017;-61
2023/10/02 09:02:15;;;;;;;11.20;5.82;;;27.10;51.20;;;;;;5033171;28;20155;-61
2023/10/02 09:04:42;;;;;;;11.82;6.35;;;27.10;50.40;;;;;;5027762;28;20132;-61
2023/10/02 09:07:23;;;;;;;11.77;6.43;;;27.00;52.40;;;;;;5039208;28;20039;-62
2023/10/02 09:10:03;;;;;;;12.93;6.90;;;26.90;49.40;;;;;;5020337;28;20436;-61
2023/10/02 09:12:29;;;;;;;8.63;5.85;;;26.80;52.30;;;;;;5025045;28;20029;-61
2023/10/02 09:15:20;;;;;;;11.43;6.28;;;26.90;52.50;;;;;;5034756;28;20029;-61
2023/10/02 09:17:44;;;;;;;12.73;7.10;;;26.90;51.90;;;;;;5029643;28;20025;-60
2023/10/02 09:20:11;;;;;;;10.63;6.68;;;26.80;50.80;;;;;;5030132;28;20108;-61
2023/10/02 09:22:41;;;;;;;10.57;6.75;;;26.70;51.00;;;;;;5031591;28;20611;-60
2023/10/02 09:25:09;;;;;;;11.07;6.38;;;26.70;51.40;;;;;;5032082;28;20049;-61
2023/10/02 09:27:41;;;;;;;14.60;7.20;;;26.70;51.40;;;;;;5029531;28;20024;-57
2023/10/02 09:30:21;;;;;;;9.52;6.45;;;26.70;51.00;;;;;;5024117;28;20025;-60
2023/10/02 09:32:53;;;;;;;13.43;6.88;;;26.70;50.80;;;;;;5025169;28;20052;-60
2023/10/02 09:35:23;;;;;;;10.30;6.43;;;26.70;50.80;;;;;;5028360;28;20100;-61
2023/10/02 09:37:56;;;;;;;8.65;5.75;;;26.80;50.50;;;;;;5029092;28;20060;-60
2023/10/02 09:40:28;;;;;;;10.35;6.18;;;26.80;50.10;;;;;;5025832;28;20034;-60
2023/10/02 09:43:03;;;;;;;8.73;5.32;;;26.80;50.10;;;;;;5027896;28;20040;-60
2023/10/02 09:45:35;;;;;;;9.75;6.38;;;26.90;50.40;;;;;;5028523;28;20026;-60
2023/10/02 09:48:46;;;;;;;12.45;6.93;;;27.00;50.70;;;;;;5018931;28;20116;-61
2023/10/02 09:50:55;;;;;;;10.88;5.90;;;27.00;50.20;;;;;;5021505;28;20037;-61
2023/10/02 09:53:24;;;;;;;12.00;7.03;;;27.00;49.60;;;;;;5028768;28;20025;-60
2023/10/02 09:56:01;;;;;;;11.25;6.72;;;26.90;49.40;;;;;;5029238;28;20029;-61
2023/10/02 09:58:52;;;;;;;10.02;5.78;;;26.80;49.20;;;;;;5022325;28;20029;-61
2023/10/02 10:03:52;;;;;;;9.77;5.50;;;26.60;49.50;;;;;;5031061;28;20112;-61
2023/10/02 10:06:28;;;;;;;10.63;6.43;;;26.50;49.50;;;;;;5027695;28;20531;-61
2023/10/02 10:12:21;;;;;;;13.20;6.97;;;26.40;50.20;;;;;;5023239;28;20144;-62
2023/10/02 10:14:37;;;;;;;13.07;7.00;;;26.40;50.00;;;;;;5022402;28;20029;-61
2023/10/02 10:17:12;;;;;;;12.75;7.07;;;26.30;50.10;;;;;;5028431;28;20086;-60
2023/10/02 10:20:18;;;;;;;12.13;6.95;;;26.20;50.20;;;;;;5026331;28;20549;-62
2023/10/02 10:22:50;;;;;;;10.75;5.95;;;26.20;50.30;;;;;;5010415;28;20025;-62
2023/10/02 10:28:06;;;;;;;14.75;6.85;;;26.00;50.90;;;;;;5031127;28;20030;-62
2023/10/02 10:35:48;;;;;;;10.25;7.03;;;25.90;50.70;;;;;;5028663;28;20072;-60
2023/10/02 10:38:26;;;;;;;10.98;6.43;;;25.90;51.10;;;;;;5033523;28;20040;-61
2023/10/02 10:41:01;;;;;;;11.10;5.97;;;25.90;51.60;;;;;;5029844;28;20485;-60
2023/10/02 10:43:43;;;;;;;;;;;25.90;51.10;;;;;;5024831;28;20038;-61
2023/10/02 10:46:19;;;;;;;11.07;6.30;;;26.00;52.10;;;;;;5021205;28;20695;-61
2023/10/02 10:48:48;;;;;;;;;;;26.10;51.70;;;;;;5027443;28;20021;-60
2023/10/02 10:51:23;;;;;;;8.93;5.47;;;26.10;51.90;;;;;;5020396;28;19919;-60
2023/10/02 10:53:52;;;;;;;7.97;5.35;;;26.00;51.00;;;;;;5025638;28;20053;-61
2023/10/02 10:56:19;;;;;;;11.90;7.00;;;26.20;51.10;;;;;;5027919;28;20130;-63
2023/10/02 10:58:52;;;;;;;11.20;6.20;;;26.20;50.90;;;;;;5028709;28;20020;-63
2023/10/02 11:01:20;;;;;;;12.63;6.47;;;26.20;51.20;;;;;;5028550;28;20032;-63
2023/10/02 11:03:54;;;;;;;9.60;5.97;;;26.20;50.90;;;;;;5032640;28;20501;-63
2023/10/02 11:06:22;;;;;;;12.60;6.55;;;26.30;51.00;;;;;;5027973;28;20100;-63
2023/10/02 11:09:16;;;;;;;13.23;7.00;;;26.10;51.00;;;;;;5028586;28;20029;-63
2023/10/02 11:11:53;;;;;;;10.88;6.07;;;26.00;50.70;;;;;;5024487;28;20397;-63
2023/10/02 11:14:34;;;;;;;8.93;5.72;;;26.00;51.10;;;;;;5029793;28;20021;-63
2023/10/02 11:17:01;;;;;;;12.68;7.15;;;25.90;51.30;;;;;;5027640;28;20030;-63
2023/10/02 11:22:19;;;;;;;10.55;6.22;;;25.70;51.60;;;;;;5023910;28;20022;-63
2023/10/02 11:24:45;;;;;;;11.82;6.57;;;25.70;52.40;;;;;;5023677;28;20096;-63
2023/10/02 11:27:18;;;;;;;9.60;6.03;;;25.60;52.50;;;;;;5030736;28;20044;-62
2023/10/02 11:30:03;;;;;;;13.95;6.60;;;25.60;52.70;;;;;;5026893;28;20071;-63
2023/10/02 11:32:58;;;;;;;11.85;6.65;;;25.60;53.00;;;;;;5022332;28;20025;-61
2023/10/02 11:35:29;;;;;;;9.35;5.57;;;25.50;53.40;;;;;;5028010;28;20496;-61
2023/10/02 11:37:56;;;;;;;11.02;6.15;;;25.50;53.10;;;;;;5024100;28;20087;-61
2023/10/02 11:40:25;;;;;;;11.32;6.10;;;25.50;53.60;;;;;;5025936;28;20049;-61
2023/10/02 11:42:56;;;;;;;10.75;5.35;;;25.50;53.40;;;;;;5029000;28;20211;-61
2023/10/02 11:45:21;;;;;;;9.15;5.38;;;25.50;53.70;;;;;;5027327;28;20112;-63
2023/10/02 11:47:47;;;;;;;10.15;5.78;;;25.40;53.50;;;;;;5017469;28;20427;-62
2023/10/02 11:50:16;;;;;;;12.35;6.43;;;25.40;53.50;;;;;;5028458;28;20027;-63
2023/10/02 11:52:41;;;;;;;13.35;6.13;;;25.30;53.60;;;;;;5023899;28;20017;-61
2023/10/02 11:55:07;;;;;;;9.70;5.50;;;25.30;53.30;;;;;;5026217;28;20060;-63
2023/10/02 11:57:33;;;;;;;10.93;6.45;;;25.30;53.60;;;;;;5024030;28;20032;-63
2023/10/02 12:00:08;;;;;;;10.00;5.97;;;25.30;53.90;;;;;;5031717;28;20576;-63
2023/10/02 12:02:37;;;;;;;8.68;4.85;;;25.40;53.70;;;;;;5024477;28;20578;-62
2023/10/02 12:05:02;;;;;;;8.80;5.47;;;25.40;53.60;;;;;;5024333;28;20061;-61
2023/10/02 12:07:28;;;;;;;11.38;5.70;;;25.50;53.60;;;;;;5014682;28;20063;-61
2023/10/02 12:09:54;;;;;;;9.07;5.57;;;25.50;53.40;;;;;;5030570;28;20033;-62
2023/10/02 12:12:19;;;;;;;13.50;6.15;;;25.60;53.30;;;;;;5029189;28;20021;-62
2023/10/02 12:14:45;;;;;;;7.75;4.60;;;25.60;53.20;;;;;;5019272;28;20036;-66
2023/10/02 12:17:14;;;;;;;14.27;5.60;;;25.70;53.10;;;;;;5025295;28;20511;-62
2023/10/02 12:19:41;;;;;;;11.18;6.13;;;25.70;53.10;;;;;;5029945;28;20033;-62
2023/10/02 12:22:07;;;;;;;12.18;6.72;;;25.80;52.60;;;;;;5026852;28;20036;-61
2023/10/02 12:24:34;;;;;;;10.48;6.00;;;25.80;52.30;;;;;;5026641;28;20033;-61
2023/10/02 12:27:00;;;;;;;10.57;6.13;;;25.80;51.50;;;;;;5026523;28;20029;-61
2023/10/02 12:29:25;;;;;;;11.45;6.60;;;25.70;51.40;;;;;;5023265;28;20041;-62
2023/10/02 12:31:52;;;;;;;12.18;6.47;;;25.70;51.40;;;;;;5023515;28;20045;-61
2023/10/02 12:34:19;;;;;;;12.30;6.13;;;25.70;51.20;;;;;;5022222;28;20064;-62
2023/10/02 12:36:44;;;;;;;11.40;5.97;;;25.60;51.20;;;;;;5029303;28;20111;-61
2023/10/02 12:39:13;;;;;;;11.70;6.47;;;25.60;51.10;;;;;;5028432;28;20112;-61
2023/10/02 12:41:42;;;;;;;11.70;6.10;;;25.60;51.10;;;;;;5027426;28;20026;-62
2023/10/02 12:44:08;;;;;;;10.85;6.00;;;25.60;51.20;;;;;;5030197;28;20064;-61
2023/10/02 12:46:43;;;;;;;10.18;5.95;;;25.50;51.20;;;;;;5027655;28;20503;-61
2023/10/02 12:49:10;;;;;;;10.27;6.38;;;25.60;51.50;;;;;;5020815;28;20024;-62
2023/10/02 12:51:38;;;;;;;11.52;6.80;;;25.60;51.50;;;;;;5028978;28;20037;-63
2023/10/02 12:54:04;;;;;;;11.02;6.32;;;25.60;51.40;;;;;;5021189;28;20436;-62
2023/10/02 12:56:30;;;;;;;11.32;6.50;;;25.60;51.50;;;;;;5019937;28;20512;-63
2023/10/02 12:58:55;;;;;;;10.13;6.30;;;25.60;51.80;;;;;;5027645;28;23341;-63
2023/10/02 13:01:27;;;;;;;13.25;7.20;;;25.60;51.30;;;;;;5011800;28;20583;-62
2023/10/02 13:04:01;;;;;;;11.10;6.78;;;25.60;51.20;;;;;;5025965;28;20108;-63
2023/10/02 13:06:29;;;;;;;11.25;6.90;;;25.60;51.30;;;;;;5028257;28;20676;-63
2023/10/02 13:09:01;;;;;;;10.85;6.32;;;25.50;51.40;;;;;;5023229;28;20021;-63
2023/10/02 13:11:27;;;;;;;11.75;6.88;;;25.50;51.60;;;;;;5019405;28;20036;-63
2023/10/02 13:13:53;;;;;;;11.30;6.50;;;25.40;51.50;;;;;;5019485;28;20524;-62
2023/10/02 13:16:19;;;;;;;10.55;6.15;;;25.40;51.50;;;;;;5017920;28;20037;-62
2023/10/02 13:18:46;;;;;;;11.30;6.40;;;25.30;51.70;;;;;;5024331;28;20029;-62
2023/10/02 13:21:14;;;;;;;11.50;6.10;;;25.30;51.80;;;;;;5030860;28;20388;-62
2023/10/02 13:23:40;;;;;;;12.20;6.50;;;25.30;51.90;;;;;;5032384;28;20029;-63
2023/10/02 13:26:08;;;;;;;13.30;6.65;;;25.20;52.00;;;;;;5020610;28;20064;-63
2023/10/02 13:28:37;;;;;;;10.88;6.47;;;25.20;51.90;;;;;;5003509;28;20022;-62
2023/10/02 13:31:13;;;;;;;10.73;6.10;;;25.20;52.00;;;;;;5025107;28;20040;-62
2023/10/02 13:33:46;;;;;;;;;;;25.10;52.70;;;;;;5021616;28;20390;-62
2023/10/02 13:36:15;;;;;;;9.43;5.93;;;25.10;53.10;;;;;;5012842;28;20455;-62
2023/10/02 13:38:41;;;;;;;8.70;5.90;;;25.10;52.60;;;;;;5026457;28;20111;-62
2023/10/02 13:41:11;;;;;;;9.65;5.13;;;25.00;52.60;;;;;;5024972;28;20026;-63
2023/10/02 13:43:41;;;;;;;10.30;6.28;;;25.00;53.00;;;;;;5029731;28;20505;-63
2023/10/02 13:46:16;;;;;;;12.20;6.47;;;25.00;52.90;;;;;;5027221;28;20120;-62
2023/10/02 13:48:47;;;;;;;8.82;5.05;;;24.90;53.10;;;;;;5024129;28;20453;-63
2023/10/02 13:51:13;;;;;;;9.55;5.13;;;24.90;53.10;;;;;;5006723;28;20107;-63
2023/10/02 13:53:42;;;;;;;11.15;5.60;;;24.80;53.80;;;;;;5031292;28;20670;-64
2023/10/02 13:56:12;;;;;;;11.23;6.18;;;24.80;53.60;;;;;;5022662;28;20034;-64
2023/10/02 13:58:40;;;;;;;9.68;5.47;;;24.70;53.90;;;;;;5026796;28;20365;-64
2023/10/02 14:01:09;;;;;;;12.35;5.78;;;24.70;54.40;;;;;;5023935;28;20030;-63